Accueil
METAR-TAF:

METAR-TAF

Aéroports :

Ørsta-Volda, Norvège

latitude: 62-11N, longitude: 006-04E, altitude: 7 m

Observation

Le bulletin a été fait il y a 12 heures et 33 minutes, à 08:20 UTC
Vent 3 kt de direction variable
Température 9°C
Humidité 87%
Pression 1013 hPa
Visibilité 10 km ou plus
Quelques nuages à une hauteur de 900 ft
Nuages épars à une hauteur de 2300 ft
Nuages fragmentés à une hauteur de 3900 ft
faibles averses de pluie

METAR: ENOV 110820Z VRB03KT 9999 -SHRA FEW009 SCT023 BKN039 09/07 Q1013 RMK WIND 2175FT 19011KT

Heure: 22:53 (20:53 UTC)


TAF: absent

Observations et prévisions météorologiques de plus de 4000 aéroports (messages METAR et TAF).

Les stations disponibles sont représentées par des disques jaunes et rouges sur la carte.

Passer la souris dessus pour voir le nom de la station.

Cliquer dessus pour voir les observations et prévisions météorologiques.

Pour changer de carte: cliquez sur les boutons verts avec une croix noire pour zoomer, sur le bouton vert avec un tiret pour effectuer un zoom arrière, ou sur les flèches vertes pour les cartes adjacentes.


METAR-TAF: